Andersen Air Force Base
PGUA : now visible

Airfield :











YOU CAN JOIN US ON...

 
LOGIN :

Register | Disclaimer

   EN    FR    IT 

 









Legend :    VFR   Marginal VFR   IFR   Intensive IFR   Very Intensive IFR
Visi :
Ceiling :
>= 8 km
>= 3000ft
5 to 8 km
1000 to 3000 ft
1500m to 5 km
500 to 1000 ft
800 to 1500m
200 to 500 ft
< 800m
< 200 ft
Symbols :   Thunderstorms  Fog  Heavy snow  Heavy precipitations  Wind > 20 kt






- Airport Elevation : 627 ft
- IATA code : UAM


PGUA - Andersen Air Force Base

CURRENT METAR :
  • 191556Z AUTO 03003KT 10SM FEW060 FEW080 SCT095 23/21 A2984 RMK AO2 RAE51 SLP095 P0021 T02300212 $

EXPIRED METARs :
  • 191511Z AUTO 13008KT 3SM -RA FEW008 FEW015 BKN043 24/22 A2984 RMK AO2 SLP095 $
  • 191456Z AUTO 10012KT 8SM -RA FEW006 FEW011 SCT016 SCT023 BKN029 25/23 A2985 RMK AO2 VIS 2 3/4 RWY24R RAE02RAB06E20RAB51 CIG 016 RWY24L SLP099 P0002 60002 T02470229 58014 $
  • 191451Z AUTO 08010KT 10SM -RA FEW009 SCT014 SCT023 BKN029 BKN085 25/23 A2984 RMK AO2 RAE02RAB06E20RAB51 CIG 014 RWY24L SLP095 $
  • 191420Z AUTO 02003KT 10SM FEW017 26/24 A2985 RMK AO2 RAE02RAB06E20 SLP099 $
  • 191406Z AUTO 05004KT 10SM -RA FEW017 FEW095 SCT120 26/24 A2986 RMK AO2 RAE02RAB06 SLP102 $
  • 191356Z AUTO 04005KT 10SM -RA FEW095 FEW120 26/24 A2987 RMK AO2 RAB47 SLP105 P0000 T02610237 402850242 $

TAF TAF PGUA
Valid from the 19 at 10:00 until the 20 at 16:00 UTC


191000Z 1910/2016 01009KT 9999 SCT012 BKN130 QNH2980INS
TEMPO 1915/1924 06012G18KT 8000 -SHRA BKN012 TX30/2002Z TN23/1918Z
PGZU FIR / Oceania



MET'MAP, your aeronautical weather chart ! - Copyright ORBIFLY December 2007 - Disclaimer

ORBIFLY MET'MAP TEAM :

Programming & Development : Alexandra Zaïnal
Original concept : Baudouin d'Aumeries
Technical & hardware support : Manuel Goepfert
Assistance : Marc-Olivier Méhu




SOURCES & CREDITS :

   NOAA       Earth
Advisory